Time;durP1;ratioP1;P1;durP2;ratioP2;P2;SDS_P1;SDS_P2;PMS_P1;PMS_P2;Temp;Humidity;BMP_temperature;BMP_pressure;BME280_temperature;BME280_humidity;BME280_pressure;Samples;Min_cycle;Max_cycle;Signal;HPM_P1;HPM_P2
2022/04/25 05:00:29;;;;;;;39.03;35.57;;;11.00;99.90;;;;;;6196893;22;20750;-72
2022/04/25 05:02:56;;;;;;;39.47;36.07;;;11.20;99.90;;;;;;6211948;23;20685;-72
2022/04/25 05:05:22;;;;;;;37.47;34.37;;;11.20;99.90;;;;;;6212223;23;20440;-73
2022/04/25 05:07:49;;;;;;;37.47;34.40;;;11.30;99.90;;;;;;6211623;23;20900;-73
2022/04/25 05:10:16;;;;;;;39.97;36.67;;;11.30;99.90;;;;;;6212870;23;20400;-73
2022/04/25 05:12:49;;;;;;;40.57;36.97;;;11.40;99.90;;;;;;6212406;23;20400;-73
2022/04/25 05:15:16;;;;;;;38.83;35.63;;;11.40;99.90;;;;;;6212443;23;20553;-73
2022/04/25 05:17:48;;;;;;;38.37;35.20;;;11.40;99.90;;;;;;6212536;23;20409;-74
2022/04/25 05:20:15;;;;;;;39.33;36.10;;;11.40;99.90;;;;;;6212819;23;20459;-74
2022/04/25 05:22:44;;;;;;;40.00;36.80;;;11.50;99.90;;;;;;6212267;23;20535;-72
2022/04/25 05:25:14;;;;;;;38.50;35.40;;;11.50;99.90;;;;;;6212509;23;20415;-74
2022/04/25 05:27:41;;;;;;;40.27;36.87;;;11.50;99.90;;;;;;6212041;23;20405;-72
2022/04/25 05:30:09;;;;;;;39.70;36.50;;;11.70;99.90;;;;;;6212431;23;20416;-73
2022/04/25 05:32:43;;;;;;;38.70;35.50;;;11.70;99.90;;;;;;6212335;23;20743;-73
2022/04/25 05:35:12;;;;;;;38.30;35.30;;;11.60;99.90;;;;;;6211881;23;20979;-74
2022/04/25 05:37:39;;;;;;;39.10;35.77;;;11.60;99.90;;;;;;6212549;23;20756;-73
2022/04/25 05:40:07;;;;;;;39.77;36.47;;;11.60;99.90;;;;;;6212339;23;20419;-74
2022/04/25 05:42:34;;;;;;;41.03;37.27;;;11.60;99.90;;;;;;6185503;23;20915;-74
2022/04/25 05:45:01;;;;;;;37.90;34.80;;;11.50;99.90;;;;;;6212917;23;20405;-75
2022/04/25 05:47:28;;;;;;;38.17;34.73;;;11.70;99.90;;;;;;6212369;23;20412;-73
2022/04/25 05:52:41;;;;;;;34.40;31.57;;;12.70;99.90;;;;;;6212123;23;20427;-72
2022/04/25 05:55:09;;;;;;;32.43;29.83;;;13.40;99.90;;;;;;6212587;23;20813;-73
2022/04/25 05:57:36;;;;;;;33.27;30.47;;;13.90;99.90;;;;;;6214512;23;20435;-72
2022/04/25 06:00:03;;;;;;;33.30;30.57;;;14.10;99.90;;;;;;6214262;23;20445;-72
2022/04/25 06:02:30;;;;;;;33.57;30.87;;;14.50;99.90;;;;;;6214337;23;20459;-73
2022/04/25 06:04:57;;;;;;;31.50;29.00;;;14.90;99.90;;;;;;6213842;23;20405;-73
2022/04/25 06:07:23;;;;;;;33.07;30.60;;;15.00;99.90;;;;;;6213712;23;20427;-72
2022/04/25 06:09:51;;;;;;;32.10;29.80;;;14.70;99.90;;;;;;6214422;23;20412;-73
2022/04/25 06:12:18;;;;;;;32.83;30.13;;;14.70;99.90;;;;;;6213928;23;20420;-74
2022/04/25 06:14:48;;;;;;;34.63;32.03;;;14.90;99.90;;;;;;6214033;23;20444;-74
2022/04/25 06:17:15;;;;;;;33.17;30.77;;;14.80;99.90;;;;;;6214382;23;20409;-72
2022/04/25 06:19:42;;;;;;;34.33;31.40;;;14.80;99.90;;;;;;6214164;23;20787;-73
2022/04/25 06:22:09;;;;;;;31.10;28.70;;;15.00;99.90;;;;;;6214004;23;20504;-72
2022/04/25 06:24:38;;;;;;;30.47;27.90;;;15.30;99.90;;;;;;6214228;23;20408;-72
2022/04/25 06:27:09;;;;;;;30.57;28.37;;;15.50;99.90;;;;;;6213906;23;20888;-73
2022/04/25 06:29:36;;;;;;;31.63;29.33;;;15.80;99.90;;;;;;6214049;23;20497;-73
2022/04/25 06:32:05;;;;;;;29.07;27.10;;;15.70;99.90;;;;;;6214025;23;20416;-74
2022/04/25 06:34:32;;;;;;;31.10;28.80;;;15.80;99.90;;;;;;6213451;23;20451;-74
2022/04/25 06:36:58;;;;;;;29.00;26.60;;;15.70;99.90;;;;;;6214025;23;20400;-72
2022/04/25 06:39:25;;;;;;;31.03;28.60;;;16.20;99.90;;;;;;6213880;23;20417;-73
2022/04/25 06:41:52;;;;;;;30.10;27.77;;;17.10;99.90;;;;;;6213625;23;20787;-74
2022/04/25 06:44:20;;;;;;;28.63;26.53;;;17.80;99.90;;;;;;6213659;23;20409;-74
2022/04/25 06:46:46;;;;;;;30.73;28.53;;;18.60;99.90;;;;;;6214138;23;20408;-73
2022/04/25 06:49:23;;;;;;;28.30;26.40;;;18.70;99.90;;;;;;6213774;23;20415;-74
2022/04/25 06:51:50;;;;;;;31.40;29.00;;;19.20;99.90;;;;;;6213714;23;20776;-74
2022/04/25 06:54:17;;;;;;;30.50;28.30;;;19.20;99.50;;;;;;6213514;23;20451;-74
2022/04/25 06:56:44;;;;;;;31.10;28.83;;;19.20;99.00;;;;;;6213723;23;20413;-74
2022/04/25 06:59:11;;;;;;;29.60;27.30;;;19.50;98.80;;;;;;6213401;23;20928;-72
2022/04/25 07:01:40;;;;;;;32.47;30.37;;;19.80;99.10;;;;;;6209713;23;20440;-74
2022/04/25 07:04:07;;;;;;;31.20;28.80;;;20.00;97.10;;;;;;6210379;23;20401;-75
2022/04/25 07:06:34;;;;;;;29.13;27.13;;;20.50;96.20;;;;;;6209661;23;20413;-74
2022/04/25 07:09:01;;;;;;;31.20;29.00;;;21.30;94.90;;;;;;6213467;23;20404;-80
2022/04/25 07:11:27;;;;;;;29.80;27.60;;;21.10;94.10;;;;;;6213824;23;20487;-75
2022/04/25 07:13:55;;;;;;;30.23;28.23;;;20.50;94.60;;;;;;6212669;23;20908;-75
2022/04/25 07:16:24;;;;;;;30.80;28.60;;;20.20;94.60;;;;;;6213753;23;20740;-77
2022/04/25 07:18:52;;;;;;;30.97;28.50;;;20.10;95.50;;;;;;6213339;23;20409;-76
2022/04/25 07:29:33;;;;;;;30.10;27.60;;;17.90;98.40;;;;;;6212825;23;20372;-76
2022/04/25 07:31:59;;;;;;;27.23;25.03;;;17.80;99.60;;;;;;6213338;23;20459;-76
2022/04/25 07:34:27;;;;;;;27.93;25.87;;;18.00;97.90;;;;;;6213042;23;20504;-76
2022/04/25 07:36:55;;;;;;;27.53;25.40;;;18.90;97.40;;;;;;6212634;23;20469;-73
2022/04/25 07:39:23;;;;;;;27.33;25.53;;;19.80;95.10;;;;;;6212899;23;20409;-76
2022/04/25 07:41:51;;;;;;;27.20;25.30;;;20.30;94.40;;;;;;6213006;23;20424;-76
2022/04/25 07:44:17;;;;;;;25.93;24.03;;;20.90;94.20;;;;;;6213005;23;20401;-76
2022/04/25 07:46:45;;;;;;;28.53;26.37;;;21.20;92.40;;;;;;6212888;23;20405;-76
2022/04/25 07:49:13;;;;;;;27.23;25.03;;;21.90;91.40;;;;;;6212381;23;20447;-76
2022/04/25 07:51:41;;;;;;;28.70;26.80;;;22.40;90.30;;;;;;6212326;23;20412;-77
2022/04/25 07:54:09;;;;;;;24.53;22.93;;;21.60;90.40;;;;;;6212597;23;20411;-75
2022/04/25 07:56:37;;;;;;;26.50;24.80;;;21.30;90.60;;;;;;6212602;23;20444;-76
2022/04/25 07:59:05;;;;;;;27.37;25.57;;;20.90;91.00;;;;;;6212706;23;20429;-76
2022/04/25 08:01:32;;;;;;;27.93;25.70;;;20.30;91.40;;;;;;6212410;23;20447;-77
2022/04/25 08:03:59;;;;;;;25.93;24.13;;;19.60;91.90;;;;;;6212604;23;20416;-76
2022/04/25 08:06:26;;;;;;;24.80;23.23;;;19.10;92.60;;;;;;6212431;23;20639;-76
2022/04/25 08:08:56;;;;;;;25.63;23.83;;;18.80;93.50;;;;;;6212677;23;20413;-76
2022/04/25 08:11:23;;;;;;;25.50;23.90;;;18.90;94.00;;;;;;6212722;23;20400;-76
2022/04/25 08:19:20;;;;;;;24.60;23.10;;;19.80;93.70;;;;;;6212513;23;20368;-76
2022/04/25 08:21:48;;;;;;;23.23;21.83;;;19.60;93.30;;;;;;6212825;23;20436;-76
2022/04/25 08:24:17;;;;;;;23.10;21.50;;;19.40;93.20;;;;;;6212951;23;20405;-76
2022/04/25 08:26:44;;;;;;;24.90;23.20;;;19.60;92.10;;;;;;6212177;23;20408;-77
2022/04/25 08:29:11;;;;;;;24.20;22.43;;;19.50;92.80;;;;;;6212652;23;20780;-76
2022/04/25 08:31:38;;;;;;;23.13;21.63;;;19.80;92.50;;;;;;6213407;23;20408;-77
2022/04/25 08:34:09;;;;;;;23.13;21.77;;;20.80;92.10;;;;;;6213962;23;20723;-78
2022/04/25 08:36:37;;;;;;;22.97;21.57;;;21.30;88.90;;;;;;6209378;23;20440;-76
2022/04/25 08:39:04;;;;;;;24.03;22.40;;;21.20;89.10;;;;;;6211333;23;20896;-76
2022/04/25 08:41:38;;;;;;;22.33;21.00;;;20.90;90.00;;;;;;6212618;23;20415;-76
2022/04/25 08:44:06;;;;;;;22.17;20.77;;;20.60;89.30;;;;;;6212613;23;20405;-77
2022/04/25 08:46:35;;;;;;;22.13;20.73;;;20.00;90.20;;;;;;6212876;23;20405;-76
2022/04/25 08:49:04;;;;;;;23.30;21.70;;;19.50;91.30;;;;;;6212790;23;20507;-76
2022/04/25 08:51:34;;;;;;;24.60;22.70;;;19.30;91.50;;;;;;6212803;23;20409;-76
2022/04/25 08:54:02;;;;;;;21.97;20.67;;;18.90;92.50;;;;;;6212548;23;20408;-76
2022/04/25 08:56:29;;;;;;;23.50;21.83;;;18.70;92.60;;;;;;6212593;23;20741;-76
2022/04/25 08:58:59;;;;;;;22.83;21.33;;;18.50;93.20;;;;;;6211871;23;20440;-76
2022/04/25 09:01:26;;;;;;;24.67;23.07;;;18.30;93.60;;;;;;6211581;23;20440;-76
2022/04/25 09:03:53;;;;;;;22.50;21.00;;;17.70;93.80;;;;;;6212025;23;20416;-75
2022/04/25 09:06:20;;;;;;;23.00;21.43;;;17.30;95.00;;;;;;6212285;23;20415;-75
2022/04/25 09:08:47;;;;;;;24.57;22.93;;;17.70;94.90;;;;;;6211826;23;20427;-75
2022/04/25 09:14:00;;;;;;;23.83;22.33;;;18.10;94.80;;;;;;6211868;23;20392;-76
2022/04/25 09:16:27;;;;;;;23.90;22.37;;;18.40;94.30;;;;;;6211697;23;20444;-76
2022/04/25 09:18:53;;;;;;;23.90;22.40;;;18.80;93.90;;;;;;6211462;23;20424;-76
2022/04/25 09:21:20;;;;;;;23.73;22.23;;;18.60;94.00;;;;;;6212375;23;20417;-76
2022/04/25 09:23:47;;;;;;;23.03;21.43;;;18.30;94.20;;;;;;6212694;23;20498;-76
2022/04/25 09:26:17;;;;;;;23.17;21.77;;;18.50;94.30;;;;;;6212173;23;20428;-76
2022/04/25 09:28:47;;;;;;;24.60;23.10;;;18.90;93.50;;;;;;6211733;23;20987;-77
2022/04/25 09:31:16;;;;;;;24.27;22.67;;;19.20;92.80;;;;;;6213966;23;20404;-78
2022/04/25 09:33:44;;;;;;;24.87;23.37;;;19.40;92.50;;;;;;6211469;23;20404;-77
2022/04/25 09:36:11;;;;;;;24.50;23.00;;;19.80;92.60;;;;;;6214030;23;20436;-77
2022/04/25 09:38:39;;;;;;;25.30;23.60;;;20.10;91.60;;;;;;6214284;23;20535;-77
2022/04/25 09:41:08;;;;;;;24.30;22.90;;;20.00;91.40;;;;;;6213935;23;20405;-77
2022/04/25 09:43:38;;;;;;;25.63;23.90;;;19.80;91.90;;;;;;6214211;23;20416;-77
2022/04/25 09:46:07;;;;;;;26.40;24.70;;;19.70;92.10;;;;;;6214682;23;20451;-76
2022/04/25 09:48:35;;;;;;;25.40;23.80;;;19.70;92.50;;;;;;6214169;23;20417;-77
2022/04/25 09:51:04;;;;;;;25.40;23.67;;;19.50;92.30;;;;;;6214296;23;20411;-76
2022/04/25 09:53:42;;;;;;;25.83;24.13;;;19.20;92.90;;;;;;6214293;23;20408;-77
2022/04/25 09:56:13;;;;;;;26.40;24.50;;;19.40;92.90;;;;;;6211805;23;20769;-77
2022/04/25 09:58:42;;;;;;;27.30;25.20;;;19.20;92.80;;;;;;6213781;23;20463;-76
2022/04/25 10:01:11;;;;;;;26.60;24.90;;;18.70;93.30;;;;;;6213624;23;21142;-76
2022/04/25 10:03:39;;;;;;;27.77;25.87;;;19.00;93.40;;;;;;6213830;23;20413;-76
2022/04/25 10:06:06;;;;;;;25.77;24.07;;;19.90;91.70;;;;;;6213674;23;20496;-76
2022/04/25 10:08:35;;;;;;;24.77;23.20;;;20.70;90.30;;;;;;6213835;23;20504;-75
2022/04/25 10:11:04;;;;;;;25.67;23.97;;;21.80;88.30;;;;;;6213932;23;20416;-76
2022/04/25 10:13:32;;;;;;;25.47;23.90;;;22.40;86.40;;;;;;6213802;23;20424;-76
2022/04/25 10:16:00;;;;;;;26.20;24.60;;;22.60;85.30;;;;;;6213944;23;20472;-76
2022/04/25 10:18:28;;;;;;;26.53;24.80;;;21.70;86.40;;;;;;6213207;23;20412;-77
2022/04/25 10:20:57;;;;;;;25.00;23.30;;;22.50;84.60;;;;;;6213309;23;20412;-76
2022/04/25 10:23:24;;;;;;;26.30;24.63;;;21.70;83.30;;;;;;6213820;23;20626;-76
2022/04/25 10:25:54;;;;;;;24.27;22.80;;;20.80;86.50;;;;;;6214039;23;20411;-77
2022/04/25 10:28:26;;;;;;;25.30;23.50;;;20.10;88.60;;;;;;6213608;23;20412;-76
2022/04/25 10:30:58;;;;;;;23.23;21.73;;;20.30;89.00;;;;;;6213800;23;20396;-77
2022/04/25 10:33:24;;;;;;;24.60;23.00;;;21.20;85.30;;;;;;6213657;23;20385;-76
2022/04/25 10:35:53;;;;;;;26.33;24.53;;;21.00;87.00;;;;;;6213671;23;20448;-77
2022/04/25 10:38:49;;;;;;;25.03;23.33;;;21.30;87.90;;;;;;6213846;23;20416;-76
2022/04/25 10:44:47;;;;;;;24.10;22.70;;;22.80;82.20;;;;;;6213384;23;20765;-77
2022/04/25 10:47:15;;;;;;;24.03;22.60;;;23.40;80.60;;;;;;6160369;23;20719;-76
2022/04/25 10:49:44;;;;;;;22.50;21.10;;;23.40;79.30;;;;;;6213596;23;20431;-76
2022/04/25 10:52:51;;;;;;;24.00;22.50;;;24.10;77.00;;;;;;6213431;23;20482;-77
2022/04/25 10:55:23;;;;;;;24.40;22.97;;;24.60;74.50;;;;;;6214337;23;20578;-77
2022/04/25 10:58:15;;;;;;;24.67;23.13;;;24.40;75.70;;;;;;6211897;23;20491;-77
2022/04/25 11:00:53;;;;;;;22.27;20.77;;;24.40;74.70;;;;;;6212576;23;20444;-77
2022/04/25 11:03:26;;;;;;;24.67;23.20;;;24.50;74.60;;;;;;6213563;23;20954;-77
2022/04/25 11:05:55;;;;;;;24.90;23.30;;;24.40;73.80;;;;;;6213172;23;20393;-76
2022/04/25 11:08:49;;;;;;;23.73;22.43;;;24.10;71.70;;;;;;6213210;23;20420;-76
2022/04/25 11:11:24;;;;;;;22.40;21.10;;;23.70;73.20;;;;;;6213371;23;20892;-76
2022/04/25 11:14:24;;;;;;;23.00;21.70;;;23.70;75.00;;;;;;6213329;23;20435;-77
2022/04/25 11:17:12;;;;;;;23.80;22.33;;;23.00;75.60;;;;;;6213344;23;20433;-78
2022/04/25 11:19:46;;;;;;;23.83;22.37;;;23.50;75.60;;;;;;6213444;23;20397;-77
2022/04/25 11:22:32;;;;;;;24.03;22.43;;;23.40;74.00;;;;;;6213554;23;20397;-77
2022/04/25 11:25:39;;;;;;;24.07;22.57;;;23.00;74.20;;;;;;6213633;23;20743;-77
2022/04/25 11:28:09;;;;;;;26.37;24.67;;;22.90;76.40;;;;;;6213435;23;20404;-77
2022/04/25 11:30:38;;;;;;;23.03;21.63;;;23.10;74.20;;;;;;6212823;23;20389;-78
2022/04/25 11:33:06;;;;;;;24.67;23.27;;;23.00;75.70;;;;;;6213043;23;20405;-77
2022/04/25 11:35:33;;;;;;;23.47;21.87;;;22.60;73.40;;;;;;6213259;23;20804;-78
2022/04/25 11:38:00;;;;;;;24.23;22.73;;;22.10;75.80;;;;;;6213782;23;20412;-78
2022/04/25 11:40:28;;;;;;;23.63;21.97;;;21.80;78.10;;;;;;6212907;23;20416;-78
2022/04/25 11:42:56;;;;;;;24.03;22.63;;;21.80;78.20;;;;;;6213052;23;20421;-75
2022/04/25 11:45:24;;;;;;;24.10;22.60;;;21.30;77.00;;;;;;6213130;23;20462;-77
2022/04/25 11:47:50;;;;;;;25.50;23.80;;;20.40;79.50;;;;;;6213030;23;20409;-76
2022/04/25 11:50:20;;;;;;;23.17;21.73;;;20.40;81.10;;;;;;6213275;23;20732;-75
2022/04/25 11:52:48;;;;;;;24.10;22.60;;;20.00;82.40;;;;;;6213325;23;20728;-77
2022/04/25 11:55:16;;;;;;;23.80;22.23;;;19.70;82.30;;;;;;6212686;23;20409;-76
2022/04/25 11:57:45;;;;;;;24.53;22.83;;;19.70;85.00;;;;;;6212676;23;20408;-76
2022/04/25 12:00:15;;;;;;;23.80;22.30;;;19.60;86.20;;;;;;6212246;23;20432;-75
2022/04/25 12:02:43;;;;;;;23.80;22.33;;;19.10;90.10;;;;;;6212647;23;20416;-78
2022/04/25 12:05:10;;;;;;;25.90;24.20;;;19.00;91.70;;;;;;6212469;23;20475;-76
2022/04/25 12:15:33;;;;;;;27.00;25.20;;;18.80;93.30;;;;;;6213316;23;20404;-78
2022/04/25 12:15:58;;;;;;;31.93;30.03;;;17.40;99.90;;;;;;6212563;23;20554;-78
2022/04/25 12:18:28;;;;;;;33.00;30.67;;;16.80;99.90;;;;;;6212810;23;20772;-79
2022/04/25 12:21:01;;;;;;;37.77;35.17;;;16.40;99.90;;;;;;6212663;23;20404;-78
2022/04/25 12:23:29;;;;;;;38.43;36.07;;;16.10;99.90;;;;;;6214560;23;20743;-79
2022/04/25 12:25:56;;;;;;;43.27;40.37;;;15.60;99.90;;;;;;6213126;23;20404;-79
2022/04/25 12:28:24;;;;;;;50.23;47.23;;;15.10;99.90;;;;;;6213103;23;20919;-81
2022/04/25 12:30:54;;;;;;;54.17;50.37;;;14.70;99.90;;;;;;6214946;23;20422;-80
2022/04/25 12:33:23;;;;;;;54.23;50.53;;;14.60;99.90;;;;;;6212876;23;20416;-83
2022/04/25 12:36:07;;;;;;;56.10;51.87;;;14.40;99.90;;;;;;6213654;23;20444;-82
2022/04/25 12:38:40;;;;;;;57.03;53.20;;;14.20;99.90;;;;;;6213335;23;20447;-84
2022/04/25 12:41:08;;;;;;;55.17;51.47;;;14.10;99.90;;;;;;6212921;23;20397;-83
2022/04/25 12:43:37;;;;;;;54.80;51.40;;;14.10;99.90;;;;;;6212569;23;20932;-81
2022/04/25 12:46:06;;;;;;;56.00;52.40;;;14.20;99.90;;;;;;6212832;23;20412;-81
2022/04/25 12:49:01;;;;;;;57.77;53.73;;;14.20;99.90;;;;;;6212109;23;20439;-79
2022/04/25 12:51:35;;;;;;;55.77;51.93;;;14.50;99.90;;;;;;6212324;23;20915;-77
2022/04/25 12:54:03;;;;;;;58.00;54.20;;;14.90;99.90;;;;;;6212753;23;20389;-76
2022/04/25 12:56:32;;;;;;;56.83;53.13;;;14.90;99.90;;;;;;6212625;23;20502;-77
2022/04/25 12:58:59;;;;;;;56.43;52.80;;;14.80;99.90;;;;;;6212891;23;20432;-77
2022/04/25 13:01:34;;;;;;;54.77;51.23;;;14.80;99.90;;;;;;6212243;23;20494;-76
2022/04/25 13:04:10;;;;;;;53.00;49.63;;;14.60;99.90;;;;;;6212615;23;20409;-76
2022/04/25 13:06:38;;;;;;;54.37;51.13;;;14.30;99.90;;;;;;6209926;23;20466;-77
2022/04/25 13:09:06;;;;;;;54.37;51.03;;;14.10;99.90;;;;;;6212082;23;20412;-77
2022/04/25 13:11:33;;;;;;;51.93;48.73;;;14.00;99.90;;;;;;6212583;23;20416;-78
2022/04/25 13:14:00;;;;;;;51.23;48.03;;;14.10;99.90;;;;;;6212815;23;20447;-77
2022/04/25 13:16:26;;;;;;;50.83;47.53;;;14.10;99.90;;;;;;6209917;23;20451;-78
2022/04/25 13:18:53;;;;;;;55.57;51.90;;;13.80;99.90;;;;;;6211922;23;20397;-76
2022/04/25 13:21:21;;;;;;;55.43;51.53;;;13.50;99.90;;;;;;6212213;23;20417;-77
2022/04/25 13:23:49;;;;;;;56.53;52.63;;;13.30;99.90;;;;;;6212824;23;20408;-77
2022/04/25 13:26:16;;;;;;;59.13;54.57;;;13.20;99.90;;;;;;6212802;23;20409;-78
2022/04/25 13:28:43;;;;;;;61.13;56.60;;;13.20;99.90;;;;;;6212857;23;20413;-73
2022/04/25 13:31:10;;;;;;;59.07;54.70;;;13.20;99.90;;;;;;6209738;23;20993;-73
2022/04/25 13:33:37;;;;;;;57.07;52.87;;;13.30;99.90;;;;;;6210788;23;20419;-74
2022/04/25 13:36:05;;;;;;;55.53;51.97;;;13.70;99.90;;;;;;6212023;23;20443;-74
2022/04/25 13:38:32;;;;;;;56.93;53.17;;;14.30;99.90;;;;;;6212368;23;21228;-74
2022/04/25 13:41:02;;;;;;;51.17;47.90;;;14.40;99.90;;;;;;6212411;23;20408;-75
2022/04/25 13:43:29;;;;;;;42.10;39.40;;;14.40;99.90;;;;;;6211864;23;20447;-75
2022/04/25 13:45:57;;;;;;;40.10;37.30;;;14.30;99.90;;;;;;6212470;23;20435;-75
2022/04/25 13:48:24;;;;;;;35.00;32.70;;;14.30;99.90;;;;;;6212988;23;20515;-75
2022/04/25 13:50:51;;;;;;;34.37;31.97;;;14.50;99.90;;;;;;6213400;23;20483;-76
2022/04/25 13:53:18;;;;;;;34.40;32.10;;;14.40;99.90;;;;;;6214577;23;20447;-74
2022/04/25 13:55:46;;;;;;;31.90;29.80;;;14.50;99.90;;;;;;6214158;23;20413;-75
2022/04/25 13:58:14;;;;;;;27.27;25.57;;;14.50;99.90;;;;;;6213168;23;20415;-76
2022/04/25 14:00:42;;;;;;;24.97;23.47;;;14.60;99.90;;;;;;6213157;23;20445;-77
2022/04/25 14:03:09;;;;;;;25.50;23.90;;;14.50;99.90;;;;;;6214000;23;20456;-77
2022/04/25 14:05:37;;;;;;;25.60;23.83;;;14.40;99.90;;;;;;6212178;23;20877;-77
2022/04/25 14:08:08;;;;;;;24.13;22.70;;;14.50;99.90;;;;;;6211955;23;20396;-76
2022/04/25 14:10:36;;;;;;;22.97;21.57;;;14.40;99.90;;;;;;6212479;23;20483;-78
2022/04/25 14:13:03;;;;;;;23.20;21.80;;;14.10;99.90;;;;;;6212285;23;20416;-79
2022/04/25 14:15:31;;;;;;;22.20;20.70;;;14.10;99.90;;;;;;6212048;23;20982;-78
2022/04/25 14:17:58;;;;;;;23.63;22.13;;;14.00;99.90;;;;;;6212929;23;20518;-77
2022/04/25 14:20:25;;;;;;;19.70;18.53;;;14.10;99.90;;;;;;6213732;23;20411;-76
2022/04/25 14:22:54;;;;;;;21.13;19.83;;;14.30;99.90;;;;;;6214076;23;20412;-76
2022/04/25 14:25:20;;;;;;;19.03;17.93;;;14.30;99.90;;;;;;6213850;23;20409;-76
2022/04/25 14:27:47;;;;;;;21.00;19.70;;;14.20;99.90;;;;;;6214146;23;20733;-75
2022/04/25 14:30:14;;;;;;;18.40;17.30;;;14.30;99.90;;;;;;6213924;23;20409;-76
2022/04/25 14:32:42;;;;;;;19.50;18.30;;;14.30;99.90;;;;;;6214084;23;20413;-76
2022/04/25 14:35:10;;;;;;;19.80;18.70;;;14.30;99.90;;;;;;6213344;23;20405;-76
2022/04/25 14:37:36;;;;;;;20.10;18.90;;;14.40;99.90;;;;;;6213982;23;20446;-75
2022/04/25 14:40:04;;;;;;;18.43;17.43;;;14.50;99.90;;;;;;6213927;23;20459;-75
2022/04/25 14:42:30;;;;;;;19.30;18.07;;;14.60;99.90;;;;;;6214059;23;20412;-76
2022/04/25 14:44:57;;;;;;;18.67;17.60;;;14.60;99.90;;;;;;6215302;23;20923;-77
2022/04/25 14:47:24;;;;;;;18.00;17.00;;;14.50;99.90;;;;;;6215395;23;20415;-74
2022/04/25 14:55:21;;;;;;;16.67;15.77;;;14.60;99.90;;;;;;6213672;23;20864;-74
2022/04/25 14:57:50;;;;;;;18.00;17.00;;;14.60;99.90;;;;;;6213906;23;20448;-74
2022/04/25 15:00:17;;;;;;;19.17;17.87;;;14.50;99.90;;;;;;6211837;23;20457;-74
2022/04/25 15:02:44;;;;;;;18.70;17.50;;;14.40;99.90;;;;;;6213960;23;20393;-73
2022/04/25 15:05:13;;;;;;;17.43;16.43;;;14.30;99.90;;;;;;6213569;23;20440;-73
2022/04/25 15:07:39;;;;;;;17.40;16.10;;;14.20;99.90;;;;;;6213473;23;20413;-74
2022/04/25 15:10:07;;;;;;;16.80;15.90;;;14.30;99.90;;;;;;6213524;23;20409;-73
2022/04/25 15:12:33;;;;;;;14.30;13.50;;;14.40;99.90;;;;;;6213769;23;20405;-75
2022/04/25 15:15:00;;;;;;;16.93;16.03;;;14.50;99.90;;;;;;6213799;23;20771;-73
2022/04/25 15:17:27;;;;;;;16.70;15.70;;;14.70;99.90;;;;;;6213085;23;20440;-75
2022/04/25 15:19:54;;;;;;;16.80;15.90;;;14.90;99.90;;;;;;6213077;23;20990;-73
2022/04/25 15:22:22;;;;;;;15.20;14.40;;;15.00;99.90;;;;;;6213563;23;20750;-74
2022/04/25 15:24:49;;;;;;;14.90;14.10;;;14.90;99.90;;;;;;6213264;23;20917;-75
2022/04/25 15:27:16;;;;;;;14.73;14.00;;;14.90;99.90;;;;;;6213485;23;20412;-73
2022/04/25 15:29:44;;;;;;;16.30;15.50;;;14.90;99.90;;;;;;6212632;23;20421;-74
2022/04/25 15:32:11;;;;;;;16.03;15.00;;;14.90;99.90;;;;;;6213129;23;20413;-74
2022/04/25 15:34:37;;;;;;;16.30;15.40;;;15.00;99.90;;;;;;6213290;23;20427;-74
2022/04/25 15:37:05;;;;;;;16.80;15.90;;;15.00;99.90;;;;;;6210418;23;20471;-74
2022/04/25 15:39:34;;;;;;;16.70;15.80;;;15.10;99.90;;;;;;6213854;23;20397;-75
2022/04/25 15:42:01;;;;;;;16.10;15.20;;;15.40;99.90;;;;;;6213653;23;20520;-74
2022/04/25 15:44:29;;;;;;;15.10;14.40;;;15.60;99.90;;;;;;6213093;23;20405;-75
2022/04/25 15:46:55;;;;;;;16.17;15.37;;;15.90;99.90;;;;;;6213443;23;20404;-74
2022/04/25 15:49:22;;;;;;;17.03;16.03;;;15.80;99.90;;;;;;6213358;23;20413;-74
2022/04/25 15:51:49;;;;;;;15.93;15.03;;;15.60;99.90;;;;;;6213326;23;20499;-75
2022/04/25 15:59:46;;;;;;;15.97;15.17;;;15.10;99.90;;;;;;6212359;23;20735;-74
2022/04/25 16:02:12;;;;;;;15.80;14.90;;;15.20;99.90;;;;;;6211791;23;20448;-74
2022/04/25 16:04:39;;;;;;;17.67;16.20;;;15.30;99.90;;;;;;6212326;23;20919;-74
2022/04/25 16:07:06;;;;;;;15.33;14.60;;;15.30;99.90;;;;;;6212080;23;20903;-75
2022/04/25 16:09:32;;;;;;;15.73;14.83;;;15.40;99.90;;;;;;6212528;23;20424;-75
2022/04/25 16:11:59;;;;;;;14.73;14.03;;;15.30;99.90;;;;;;6212641;23;20459;-75
2022/04/25 16:14:29;;;;;;;14.50;13.80;;;15.20;99.90;;;;;;6212450;23;20494;-75
2022/04/25 16:16:55;;;;;;;15.40;14.60;;;15.10;99.90;;;;;;6212726;23;20440;-75
2022/04/25 16:19:22;;;;;;;15.90;15.10;;;15.10;99.90;;;;;;6212504;23;20409;-74
2022/04/25 16:21:49;;;;;;;16.20;15.30;;;15.10;99.90;;;;;;6212919;23;20419;-75
2022/04/25 16:24:15;;;;;;;14.40;13.70;;;15.00;99.90;;;;;;6213092;23;20417;-75
2022/04/25 16:26:42;;;;;;;15.80;15.00;;;15.00;99.90;;;;;;6212526;23;20415;-75
2022/04/25 16:29:09;;;;;;;14.67;13.97;;;15.00;99.90;;;;;;6212177;23;20413;-75
2022/04/25 16:31:37;;;;;;;15.63;14.77;;;15.00;99.90;;;;;;6212064;23;20424;-74
2022/04/25 16:34:04;;;;;;;15.73;14.93;;;15.00;99.90;;;;;;6212121;23;20922;-75
2022/04/25 16:36:31;;;;;;;17.70;16.70;;;14.80;99.90;;;;;;6186132;23;20419;-74
2022/04/25 16:38:58;;;;;;;16.33;15.53;;;14.60;99.90;;;;;;6212364;23;20466;-74
2022/04/25 16:41:25;;;;;;;16.50;15.60;;;14.60;99.90;;;;;;6211556;23;20980;-74
2022/04/25 16:43:52;;;;;;;17.20;16.20;;;14.70;99.90;;;;;;6212198;23;20441;-74
2022/04/25 16:46:18;;;;;;;16.80;15.90;;;14.60;99.90;;;;;;6212611;23;20456;-74
2022/04/25 16:48:46;;;;;;;16.43;15.57;;;14.60;99.90;;;;;;6212508;23;20412;-74
2022/04/25 16:51:13;;;;;;;17.10;16.30;;;14.80;99.90;;;;;;6212079;23;20431;-74
2022/04/25 16:53:40;;;;;;;17.13;16.23;;;14.90;99.90;;;;;;6212100;23;20795;-75
2022/04/25 16:56:07;;;;;;;16.43;15.60;;;15.00;99.90;;;;;;6211921;23;20439;-74
2022/04/25 16:58:34;;;;;;;16.70;15.20;;;14.90;99.90;;;;;;6210217;23;20448;-75
2022/04/25 17:01:01;;;;;;;14.50;13.70;;;14.70;99.90;;;;;;6211806;23;20447;-74
2022/04/25 17:03:28;;;;;;;14.37;13.67;;;14.60;99.90;;;;;;6212070;23;20412;-75
2022/04/25 17:05:58;;;;;;;15.10;14.40;;;14.50;99.90;;;;;;6212020;23;20404;-74
2022/04/25 17:08:25;;;;;;;14.03;13.27;;;14.50;99.90;;;;;;6211656;23;20462;-73
2022/04/25 17:10:53;;;;;;;15.53;14.63;;;14.40;99.90;;;;;;6211988;23;20409;-74
2022/04/25 17:13:20;;;;;;;16.00;15.20;;;14.40;99.90;;;;;;6212440;23;20500;-74
2022/04/25 17:15:47;;;;;;;16.00;15.10;;;14.40;99.90;;;;;;6212321;23;20417;-75
2022/04/25 17:18:14;;;;;;;15.00;14.20;;;14.40;99.90;;;;;;6211469;23;20448;-75
2022/04/25 17:20:41;;;;;;;13.07;12.37;;;14.50;99.90;;;;;;6212134;23;21062;-74
2022/04/25 17:23:09;;;;;;;14.00;13.30;;;14.50;99.90;;;;;;6212092;23;20413;-75
2022/04/25 17:25:37;;;;;;;14.53;13.73;;;14.40;99.90;;;;;;6212333;23;20413;-75
2022/04/25 17:28:05;;;;;;;14.63;13.73;;;14.40;99.90;;;;;;6212513;23;20507;-74
2022/04/25 17:30:32;;;;;;;14.03;13.23;;;14.30;99.90;;;;;;6212783;23;20415;-74
2022/04/25 17:35:44;;;;;;;13.40;12.80;;;14.00;99.90;;;;;;6212225;23;20381;-75
